createdAt,value
2018-09-19T00:00:05.358Z,3.70
2018-09-19T00:02:34.294Z,3.08
2018-09-19T00:05:03.161Z,2.83
2018-09-19T00:07:32.184Z,3.05
2018-09-19T00:10:01.164Z,2.62
2018-09-19T00:12:30.139Z,3.25
2018-09-19T00:14:59.342Z,3.25
2018-09-19T00:17:28.414Z,3.45
2018-09-19T00:19:57.355Z,3.30
2018-09-19T00:22:26.489Z,3.60
2018-09-19T00:24:59.645Z,2.80
2018-09-19T00:27:28.566Z,2.98
2018-09-19T00:29:57.502Z,2.67
2018-09-19T00:32:26.474Z,3.08
2018-09-19T00:34:55.343Z,3.30
2018-09-19T00:37:24.242Z,2.67
2018-09-19T00:39:53.112Z,3.35
2018-09-19T00:42:22.031Z,2.42
2018-09-19T00:44:50.942Z,3.33
2018-09-19T00:47:19.911Z,2.47
2018-09-19T00:49:48.807Z,3.40
2018-09-19T00:52:17.689Z,2.80
2018-09-19T00:54:46.620Z,3.42
2018-09-19T00:57:15.810Z,3.08
2018-09-19T00:59:44.766Z,2.85
2018-09-19T01:02:13.740Z,3.22
2018-09-19T01:04:42.662Z,2.90
2018-09-19T01:07:11.699Z,2.42
2018-09-19T01:09:40.750Z,3.00
2018-09-19T01:12:09.676Z,3.10
2018-09-19T01:14:38.607Z,2.87
2018-09-19T01:17:07.738Z,3.35
2018-09-19T01:19:36.685Z,2.62
2018-09-19T01:22:05.565Z,2.62
2018-09-19T01:24:34.574Z,2.87
2018-09-19T01:27:03.556Z,2.87
2018-09-19T01:29:33.293Z,3.08
2018-09-19T01:32:02.330Z,2.98
2018-09-19T01:34:31.285Z,2.80
2018-09-19T01:37:00.187Z,2.30
2018-09-19T01:39:29.120Z,3.20
2018-09-19T01:41:58.327Z,2.77
2018-09-19T01:44:27.236Z,3.22
2018-09-19T01:46:56.252Z,3.33
2018-09-19T01:49:25.515Z,2.80
2018-09-19T01:51:55.192Z,3.20
2018-09-19T01:54:25.218Z,3.75
2018-09-19T01:56:54.661Z,3.02
2018-09-19T01:59:23.544Z,3.12
2018-09-19T02:01:52.541Z,3.25
2018-09-19T02:04:21.453Z,3.65
2018-09-19T02:06:50.366Z,3.12
2018-09-19T02:09:19.251Z,3.37
2018-09-19T02:11:48.859Z,3.35
2018-09-19T02:14:17.901Z,4.60
2018-09-19T02:16:46.784Z,3.20
2018-09-19T02:19:15.645Z,3.27
2018-09-19T02:21:44.665Z,3.42
2018-09-19T02:24:13.676Z,3.15
2018-09-19T02:26:42.776Z,3.45
2018-09-19T02:29:11.672Z,2.83
2018-09-19T02:31:40.591Z,3.80
2018-09-19T02:34:09.715Z,3.40
2018-09-19T02:36:38.595Z,3.65
2018-09-19T02:39:09.658Z,4.08
2018-09-19T02:41:38.717Z,3.72
2018-09-19T02:44:07.711Z,3.37
2018-09-19T02:46:36.702Z,3.33
2018-09-19T02:49:05.599Z,3.20
2018-09-19T02:51:34.544Z,3.35
2018-09-19T02:54:03.450Z,3.05
2018-09-19T02:56:32.389Z,3.95
2018-09-19T02:59:01.580Z,4.40
2018-09-19T03:01:30.546Z,3.70
2018-09-19T03:03:59.548Z,3.25
2018-09-19T03:06:28.478Z,3.05
2018-09-19T03:08:57.399Z,3.20
2018-09-19T03:11:26.450Z,2.75
2018-09-19T03:13:55.363Z,3.30
2018-09-19T03:16:24.376Z,3.17
2018-09-19T03:18:53.381Z,3.80
2018-09-19T03:21:22.309Z,3.22
2018-09-19T03:23:51.206Z,3.75
2018-09-19T03:26:20.122Z,3.60
2018-09-19T03:28:49.326Z,2.90
2018-09-19T03:31:18.272Z,3.80
2018-09-19T03:33:47.140Z,3.15
2018-09-19T03:36:16.236Z,3.12
2018-09-19T03:38:45.128Z,2.90
2018-09-19T03:41:14.095Z,3.42
2018-09-19T03:43:43.058Z,3.15
2018-09-19T03:46:12.015Z,3.67
2018-09-19T03:48:40.922Z,3.25
2018-09-19T03:51:09.818Z,3.80
2018-09-19T03:53:38.705Z,3.17
2018-09-19T03:56:07.881Z,3.33
2018-09-19T03:58:36.920Z,2.98
2018-09-19T04:01:05.830Z,3.05
2018-09-19T04:03:34.727Z,2.33
2018-09-19T04:06:03.659Z,2.60
2018-09-19T04:08:32.540Z,2.52
2018-09-19T04:11:01.517Z,2.75
2018-09-19T04:13:30.417Z,3.17
2018-09-19T04:15:59.280Z,3.08
2018-09-19T04:18:28.257Z,3.33
2018-09-19T04:20:57.159Z,3.83
2018-09-19T04:23:26.029Z,3.60
2018-09-19T04:25:54.912Z,4.42
2018-09-19T04:28:23.786Z,3.22
2018-09-19T04:30:52.923Z,3.58
2018-09-19T04:33:21.815Z,3.67
2018-09-19T04:35:50.764Z,3.40
2018-09-19T04:38:19.762Z,4.37
2018-09-19T04:40:48.661Z,3.55
2018-09-19T04:43:17.545Z,3.58
2018-09-19T04:45:46.483Z,3.55
2018-09-19T04:48:15.804Z,3.87
2018-09-19T04:50:44.685Z,3.58
2018-09-19T04:53:13.546Z,3.55
2018-09-19T04:55:42.465Z,4.25
2018-09-19T04:58:11.387Z,3.90
2018-09-19T05:00:40.327Z,3.85
2018-09-19T05:03:09.203Z,3.50
2018-09-19T05:05:38.375Z,3.90
2018-09-19T05:08:07.345Z,3.62
2018-09-19T05:10:36.345Z,3.10
2018-09-19T05:13:05.400Z,3.80
2018-09-19T05:15:34.333Z,4.33
2018-09-19T05:18:03.238Z,4.92
2018-09-19T05:20:32.120Z,4.60
2018-09-19T05:23:01.000Z,4.37
2018-09-19T05:25:30.023Z,4.03
2018-09-19T05:27:58.917Z,3.90
2018-09-19T05:30:27.925Z,3.83
2018-09-19T05:32:56.808Z,4.33
2018-09-19T05:35:25.745Z,3.75
2018-09-19T05:37:54.724Z,4.28
2018-09-19T05:40:23.613Z,4.70
2018-09-19T05:42:52.506Z,5.53
2018-09-19T05:45:21.711Z,5.80
2018-09-19T05:47:50.654Z,5.12
2018-09-19T05:50:19.572Z,5.50
2018-09-19T05:52:48.486Z,5.58
2018-09-19T05:55:17.360Z,5.62
2018-09-19T05:57:46.278Z,5.28
2018-09-19T06:00:15.259Z,5.13
2018-09-19T06:02:44.113Z,5.28
2018-09-19T06:05:12.982Z,5.25
2018-09-19T06:07:41.955Z,5.53
2018-09-19T06:10:10.842Z,5.05
2018-09-19T06:12:39.799Z,7.30
2018-09-19T06:15:08.685Z,6.20
2018-09-19T06:17:37.566Z,6.15
2018-09-19T06:20:06.449Z,5.12
2018-09-19T06:22:35.367Z,5.20
2018-09-19T06:25:04.366Z,5.58
2018-09-19T06:27:33.357Z,6.92
2018-09-19T06:30:02.285Z,5.70
2018-09-19T06:32:31.330Z,4.72
2018-09-19T06:35:00.277Z,4.55
2018-09-19T06:37:29.267Z,5.50
2018-09-19T06:39:58.331Z,5.33
2018-09-19T06:42:27.167Z,5.00
2018-09-19T06:44:56.148Z,5.35
2018-09-19T06:47:25.397Z,5.97
2018-09-19T06:49:54.619Z,4.15
2018-09-19T06:52:23.739Z,4.05
2018-09-19T06:54:52.671Z,3.98
2018-09-19T06:57:21.593Z,4.00
2018-09-19T06:59:50.877Z,4.05
2018-09-19T07:02:19.747Z,3.83
2018-09-19T07:04:48.706Z,4.37
2018-09-19T07:07:17.691Z,3.98
2018-09-19T07:09:46.611Z,3.75
2018-09-19T07:12:15.502Z,4.65
2018-09-19T07:14:44.387Z,3.47
2018-09-19T07:17:13.305Z,3.02
2018-09-19T07:19:42.201Z,2.80
2018-09-19T07:22:11.158Z,3.35
2018-09-19T07:24:40.044Z,3.33
2018-09-19T07:27:08.930Z,2.45
2018-09-19T07:29:37.908Z,2.90
2018-09-19T07:32:07.057Z,2.05
2018-09-19T07:34:36.837Z,2.62
2018-09-19T07:37:05.761Z,2.40
2018-09-19T07:39:34.687Z,2.22
2018-09-19T07:42:03.850Z,2.42
2018-09-19T07:44:32.743Z,2.30
2018-09-19T07:47:01.648Z,2.90
2018-09-19T07:49:30.576Z,1.98
2018-09-19T07:51:59.455Z,2.25
2018-09-19T07:54:28.421Z,2.87
2018-09-19T07:56:57.333Z,1.85
2018-09-19T07:59:26.180Z,2.22
2018-09-19T08:01:55.228Z,2.20
2018-09-19T08:04:24.138Z,1.67
2018-09-19T08:06:53.028Z,1.82
2018-09-19T08:09:22.149Z,2.30
2018-09-19T08:11:51.070Z,2.08
2018-09-19T08:14:19.948Z,2.00
2018-09-19T08:16:48.849Z,2.02
2018-09-19T08:19:17.732Z,2.08
2018-09-19T08:21:46.637Z,1.50
2018-09-19T08:24:15.520Z,1.50
2018-09-19T08:26:44.761Z,1.70
2018-09-19T08:29:13.609Z,1.40
2018-09-19T08:31:42.519Z,1.60
2018-09-19T08:34:11.574Z,1.50
2018-09-19T08:36:40.523Z,1.30
2018-09-19T08:39:10.398Z,1.40
2018-09-19T08:41:39.322Z,1.50
2018-09-19T08:44:08.253Z,1.50
2018-09-19T08:46:37.162Z,1.70
2018-09-19T08:49:06.121Z,1.47
2018-09-19T08:51:35.044Z,1.60
2018-09-19T08:54:03.951Z,1.70
2018-09-19T08:56:32.851Z,1.50
2018-09-19T08:59:01.775Z,1.45
2018-09-19T09:01:30.691Z,1.42
2018-09-19T09:03:59.597Z,2.20
2018-09-19T09:06:28.659Z,1.40
2018-09-19T09:08:57.570Z,1.40
2018-09-19T09:11:26.439Z,1.30
2018-09-19T09:13:55.380Z,1.20
2018-09-19T09:16:24.259Z,1.40
2018-09-19T09:18:53.397Z,1.40
2018-09-19T09:21:22.263Z,1.37
2018-09-19T09:23:51.159Z,1.27
2018-09-19T09:26:20.107Z,0.80
2018-09-19T09:28:48.970Z,1.27
2018-09-19T09:31:17.910Z,1.30
2018-09-19T09:33:46.718Z,1.20
2018-09-19T09:36:15.620Z,1.50
2018-09-19T09:38:44.522Z,1.17
2018-09-19T09:41:13.456Z,1.10
2018-09-19T09:43:42.422Z,1.15
2018-09-19T09:46:11.551Z,1.92
2018-09-19T09:48:40.344Z,1.52
2018-09-19T09:51:09.223Z,1.30
2018-09-19T09:53:38.147Z,1.12
2018-09-19T09:56:07.267Z,1.17
2018-09-19T09:58:36.266Z,1.30
2018-09-19T10:01:05.123Z,1.00
2018-09-19T10:03:34.027Z,1.10
2018-09-19T10:06:02.898Z,1.35
2018-09-19T10:08:31.782Z,1.10
2018-09-19T10:11:00.677Z,1.10
2018-09-19T10:13:29.556Z,1.20
2018-09-19T10:15:58.483Z,1.17
2018-09-19T10:18:27.394Z,1.20
2018-09-19T10:20:56.274Z,1.10
2018-09-19T10:23:25.186Z,1.10
2018-09-19T10:25:54.267Z,1.00
2018-09-19T10:28:23.207Z,1.20
2018-09-19T10:30:52.084Z,1.15
2018-09-19T10:33:21.275Z,1.30
2018-09-19T10:35:50.186Z,0.98
2018-09-19T10:38:19.131Z,1.27
2018-09-19T10:40:48.270Z,1.37
2018-09-19T10:43:17.179Z,1.20
2018-09-19T10:45:46.117Z,1.50
2018-09-19T10:48:15.210Z,1.35
2018-09-19T10:50:44.091Z,1.15
2018-09-19T10:53:12.975Z,0.88
2018-09-19T10:55:41.885Z,1.27
2018-09-19T10:58:10.815Z,0.85
2018-09-19T11:00:39.686Z,1.20
2018-09-19T11:03:08.604Z,1.10
2018-09-19T11:05:37.501Z,0.90
2018-09-19T11:08:06.426Z,1.27
2018-09-19T11:10:35.431Z,0.80
2018-09-19T11:13:04.416Z,0.90
2018-09-19T11:15:33.814Z,0.82
2018-09-19T11:18:02.738Z,1.25
2018-09-19T11:20:31.705Z,1.15
2018-09-19T11:23:00.885Z,1.05
2018-09-19T11:25:29.752Z,1.25
2018-09-19T11:27:58.663Z,1.35
2018-09-19T11:30:27.892Z,0.98
2018-09-19T11:32:56.750Z,1.12
2018-09-19T11:35:25.617Z,1.37
2018-09-19T11:37:54.744Z,1.40
2018-09-19T11:40:23.643Z,1.40
2018-09-19T11:42:52.685Z,1.40
2018-09-19T11:45:21.670Z,1.62
2018-09-19T11:47:50.588Z,1.20
2018-09-19T11:50:19.558Z,1.25
2018-09-19T11:52:48.487Z,2.15
2018-09-19T11:55:17.399Z,1.25
2018-09-19T11:57:46.373Z,1.65
2018-09-19T12:00:15.244Z,1.30
2018-09-19T12:02:44.131Z,1.50
2018-09-19T12:05:13.072Z,1.87
2018-09-19T12:07:41.957Z,1.30
2018-09-19T12:10:11.796Z,1.72
2018-09-19T12:12:41.905Z,1.30
2018-09-19T12:15:10.849Z,1.72
2018-09-19T12:17:40.615Z,1.30
2018-09-19T12:20:09.533Z,1.52
2018-09-19T12:22:38.377Z,2.72
2018-09-19T12:25:07.433Z,1.27
2018-09-19T12:28:47.200Z,1.70
2018-09-19T12:31:16.095Z,1.45
2018-09-19T12:33:45.016Z,2.25
2018-09-19T12:36:13.896Z,1.85
2018-09-19T12:38:42.847Z,1.55
2018-09-19T12:41:11.745Z,1.90
2018-09-19T12:43:40.657Z,1.60
2018-09-19T12:46:09.564Z,2.10
2018-09-19T12:48:39.041Z,2.00
2018-09-19T12:51:09.779Z,1.90
2018-09-19T12:53:43.711Z,1.60
2018-09-19T12:56:25.096Z,1.77
2018-09-19T12:58:53.992Z,1.62
2018-09-19T13:01:22.891Z,1.75
2018-09-19T13:03:51.815Z,2.00
2018-09-19T13:06:21.036Z,1.60
2018-09-19T13:08:49.932Z,1.57
2018-09-19T13:11:18.816Z,1.80
2018-09-19T13:13:47.838Z,1.77
2018-09-19T13:16:16.698Z,1.70
2018-09-19T13:18:45.638Z,1.87
2018-09-19T13:21:14.503Z,1.72
2018-09-19T13:23:43.386Z,1.90
2018-09-19T13:26:12.279Z,1.85
2018-09-19T13:28:41.170Z,1.98
2018-09-19T13:31:10.065Z,1.57
2018-09-19T13:33:38.984Z,1.80
2018-09-19T13:36:07.939Z,2.33
2018-09-19T13:38:36.920Z,2.47
2018-09-19T13:41:05.897Z,1.60
2018-09-19T13:43:34.819Z,1.50
2018-09-19T13:46:04.011Z,1.57
2018-09-19T13:48:32.898Z,2.27
2018-09-19T13:51:18.774Z,2.08
2018-09-19T13:53:47.654Z,1.87
2018-09-19T13:56:16.577Z,1.60
2018-09-19T13:58:45.585Z,1.72
2018-09-19T14:01:14.448Z,2.10
2018-09-19T14:03:43.506Z,1.45
2018-09-19T14:06:12.402Z,1.90
2018-09-19T14:08:41.311Z,1.70
2018-09-19T14:11:11.816Z,1.60
2018-09-19T14:13:41.265Z,1.70
2018-09-19T14:16:10.203Z,1.80
2018-09-19T14:18:39.098Z,1.72
2018-09-19T14:21:08.019Z,2.15
2018-09-19T14:23:36.908Z,2.12
2018-09-19T14:26:05.857Z,1.70
2018-09-19T14:28:34.994Z,1.60
2018-09-19T14:31:03.877Z,1.95
2018-09-19T14:33:32.779Z,1.67
2018-09-19T14:36:01.877Z,2.25
2018-09-19T14:38:30.754Z,1.67
2018-09-19T14:40:59.760Z,1.52
2018-09-19T14:43:28.655Z,1.67
2018-09-19T14:45:57.598Z,1.67
2018-09-19T14:48:26.653Z,2.00
2018-09-19T14:50:55.548Z,2.15
2018-09-19T14:58:55.477Z,1.77
2018-09-19T15:01:24.352Z,2.40
2018-09-19T15:03:53.225Z,1.92
2018-09-19T15:06:22.103Z,1.50
2018-09-19T15:08:50.987Z,1.85
2018-09-19T15:11:19.878Z,1.77
2018-09-19T15:13:48.798Z,1.90
2018-09-19T15:16:17.695Z,1.75
2018-09-19T15:18:46.714Z,1.87
2018-09-19T15:21:15.581Z,1.80
2018-09-19T15:23:44.484Z,1.90
2018-09-19T15:26:13.405Z,1.95
2018-09-19T15:28:42.309Z,1.80
2018-09-19T15:31:11.190Z,1.72
2018-09-19T15:33:40.114Z,2.00
2018-09-19T15:36:09.070Z,1.98
2018-09-19T15:38:37.947Z,2.00
2018-09-19T15:41:06.941Z,2.15
2018-09-19T15:43:36.454Z,1.80
2018-09-19T15:46:05.332Z,1.75
2018-09-19T15:48:34.365Z,2.17
2018-09-19T15:51:03.208Z,1.90
2018-09-19T15:53:32.710Z,1.90
2018-09-19T15:56:02.645Z,2.27
2018-09-19T15:58:31.524Z,1.77
2018-09-19T16:01:00.576Z,2.35
2018-09-19T16:03:29.501Z,2.37
2018-09-19T16:05:58.480Z,2.05
2018-09-19T16:08:27.360Z,2.75
2018-09-19T16:10:56.240Z,2.10
2018-09-19T16:13:25.163Z,2.00
2018-09-19T16:15:54.151Z,2.20
2018-09-19T16:18:23.072Z,1.77
2018-09-19T16:20:52.103Z,2.08
2018-09-19T16:23:20.953Z,2.22
2018-09-19T16:25:50.711Z,1.72
2018-09-19T16:28:19.636Z,2.05
2018-09-19T16:30:48.812Z,2.08
2018-09-19T16:33:17.706Z,1.90
2018-09-19T16:35:46.647Z,2.08
2018-09-19T16:38:15.864Z,1.82
2018-09-19T16:40:44.755Z,2.05
2018-09-19T16:43:13.649Z,2.08
2018-09-19T16:45:42.934Z,2.10
2018-09-19T16:48:11.804Z,2.05
2018-09-19T16:50:40.688Z,2.75
2018-09-19T16:53:09.598Z,1.95
2018-09-19T16:55:38.512Z,2.10
2018-09-19T16:58:07.664Z,1.90
2018-09-19T17:00:36.584Z,2.10
2018-09-19T17:03:05.538Z,2.65
2018-09-19T17:05:34.836Z,2.70
2018-09-19T17:08:03.740Z,2.15
2018-09-19T17:10:32.635Z,2.37
2018-09-19T17:13:01.578Z,2.20
2018-09-19T17:15:30.509Z,2.15
2018-09-19T17:18:00.527Z,2.45
2018-09-19T17:20:30.238Z,2.33
2018-09-19T17:22:59.251Z,2.40
2018-09-19T17:25:28.179Z,2.58
2018-09-19T17:27:57.177Z,2.55
2018-09-19T17:30:26.378Z,2.77
2018-09-19T17:32:55.258Z,2.90
2018-09-19T17:35:24.156Z,2.87
2018-09-19T17:37:53.631Z,2.58
2018-09-19T17:40:22.536Z,2.77
2018-09-19T17:42:51.401Z,2.65
2018-09-19T17:45:20.529Z,2.92
2018-09-19T17:47:49.490Z,2.35
2018-09-19T17:50:18.371Z,2.60
2018-09-19T17:52:47.315Z,2.37
2018-09-19T17:55:16.224Z,2.60
2018-09-19T17:57:45.155Z,2.60
2018-09-19T18:00:14.035Z,2.52
2018-09-19T18:02:43.217Z,3.05
2018-09-19T18:05:12.129Z,2.87
2018-09-19T18:07:41.035Z,2.52
2018-09-19T18:10:09.960Z,2.70
2018-09-19T18:12:38.871Z,2.87
2018-09-19T18:15:07.820Z,2.47
2018-09-19T18:17:36.700Z,2.87
2018-09-19T18:20:05.648Z,2.75
2018-09-19T18:22:34.677Z,2.80
2018-09-19T18:25:03.653Z,2.27
2018-09-19T18:27:32.617Z,2.70
2018-09-19T18:30:01.472Z,2.85
2018-09-19T18:32:30.426Z,2.52
2018-09-19T18:34:59.315Z,2.60
2018-09-19T18:37:28.208Z,2.52
2018-09-19T18:39:57.260Z,2.75
2018-09-19T18:42:26.143Z,2.80
2018-09-19T18:44:55.030Z,2.75
2018-09-19T18:47:23.955Z,2.60
2018-09-19T18:49:52.836Z,2.45
2018-09-19T18:52:21.768Z,2.52
2018-09-19T18:54:50.650Z,2.20
2018-09-19T18:57:19.518Z,2.47
2018-09-19T18:59:48.444Z,2.58
2018-09-19T19:02:17.321Z,2.42
2018-09-19T19:04:46.217Z,2.27
2018-09-19T19:07:15.091Z,2.52
2018-09-19T19:09:43.955Z,2.87
2018-09-19T19:12:12.877Z,2.77
2018-09-19T19:14:41.768Z,2.77
2018-09-19T19:17:10.632Z,2.90
2018-09-19T19:19:39.603Z,2.70
2018-09-19T19:22:08.466Z,2.92
2018-09-19T19:24:37.474Z,2.62
2018-09-19T19:27:05.997Z,2.77
2018-09-19T19:29:34.912Z,2.60
2018-09-19T19:32:03.842Z,2.62
2018-09-19T19:34:32.718Z,2.95
2018-09-19T19:37:01.867Z,3.33
2018-09-19T19:39:30.788Z,3.10
2018-09-19T19:41:59.773Z,3.10
2018-09-19T19:44:28.684Z,2.72
2018-09-19T19:46:57.582Z,3.33
2018-09-19T19:49:26.460Z,3.20
2018-09-19T19:51:55.407Z,2.60
2018-09-19T19:54:24.332Z,2.55
2018-09-19T19:56:53.220Z,3.10
2018-09-19T19:59:22.467Z,3.17
2018-09-19T20:01:51.298Z,3.10
2018-09-19T20:04:20.207Z,2.83
2018-09-19T20:06:49.226Z,2.58
2018-09-19T20:09:18.134Z,2.70
2018-09-19T20:11:47.419Z,2.95
2018-09-19T20:14:16.378Z,2.60
2018-09-19T20:16:45.437Z,2.75
2018-09-19T20:19:14.363Z,2.58
2018-09-19T20:21:43.474Z,2.83
2018-09-19T20:24:12.370Z,3.10
2018-09-19T20:26:41.344Z,3.10
2018-09-19T20:29:10.276Z,2.67
2018-09-19T20:31:39.215Z,3.30
2018-09-19T20:34:08.217Z,2.70
2018-09-19T20:36:37.472Z,3.08
2018-09-19T20:39:08.454Z,3.00
2018-09-19T20:41:37.344Z,2.95
2018-09-19T20:44:06.289Z,3.00
2018-09-19T20:46:35.232Z,2.47
2018-09-19T20:49:04.157Z,4.12
2018-09-19T20:51:33.078Z,2.70
2018-09-19T20:54:01.979Z,2.60
2018-09-19T20:56:30.884Z,2.60
2018-09-19T20:58:59.838Z,2.50
2018-09-19T21:01:28.735Z,2.33
2018-09-19T21:03:57.644Z,2.75
2018-09-19T21:06:26.537Z,2.60
2018-09-19T21:08:55.436Z,2.60
2018-09-19T21:11:24.307Z,2.20
2018-09-19T21:13:53.396Z,2.90
2018-09-19T21:16:22.367Z,2.52
2018-09-19T21:18:51.325Z,2.70
2018-09-19T21:21:20.315Z,2.70
2018-09-19T21:23:49.281Z,2.72
2018-09-19T21:26:18.157Z,2.58
2018-09-19T21:28:47.139Z,2.75
2018-09-19T21:31:16.063Z,2.50
2018-09-19T21:33:44.994Z,2.75
2018-09-19T21:36:13.954Z,3.85
2018-09-19T21:38:42.853Z,2.58
2018-09-19T21:41:12.188Z,3.83
2018-09-19T21:43:41.099Z,4.08
2018-09-19T21:46:10.234Z,4.53
2018-09-19T21:48:39.241Z,4.42
2018-09-19T21:51:08.090Z,3.95
2018-09-19T21:53:36.990Z,4.42
2018-09-19T21:56:06.043Z,4.35
2018-09-19T21:58:35.232Z,4.30
2018-09-19T22:01:08.847Z,4.75
2018-09-19T22:03:39.580Z,4.83
2018-09-19T22:06:08.535Z,4.62
2018-09-19T22:08:38.294Z,5.95
2018-09-19T22:11:07.373Z,4.92
2018-09-19T22:13:36.301Z,4.37
2018-09-19T22:16:05.301Z,4.55
2018-09-19T22:18:34.557Z,4.08
2018-09-19T22:21:03.774Z,4.28
2018-09-19T22:23:32.673Z,4.20
2018-09-19T22:26:01.623Z,4.33
2018-09-19T22:28:31.168Z,3.83
2018-09-19T22:31:00.112Z,3.65
2018-09-19T22:33:29.143Z,3.05
2018-09-19T22:35:58.032Z,4.15
2018-09-19T22:38:26.925Z,3.40
2018-09-19T22:40:55.886Z,3.87
2018-09-19T22:43:24.822Z,3.52
2018-09-19T22:45:53.688Z,3.08
2018-09-19T22:48:22.626Z,3.08
2018-09-19T22:50:51.547Z,3.62
2018-09-19T22:53:20.812Z,2.45
2018-09-19T22:55:49.839Z,2.55
2018-09-19T22:58:18.725Z,2.98
2018-09-19T23:00:47.717Z,2.35
2018-09-19T23:03:16.603Z,2.12
2018-09-19T23:05:45.657Z,2.52
2018-09-19T23:08:14.557Z,3.20
2018-09-19T23:10:43.444Z,2.40
2018-09-19T23:13:12.327Z,2.65
2018-09-19T23:15:41.219Z,2.25
2018-09-19T23:18:10.300Z,2.17
2018-09-19T23:20:39.193Z,2.55
2018-09-19T23:23:08.106Z,2.30
2018-09-19T23:25:36.996Z,2.05
2018-09-19T23:28:05.944Z,3.02
2018-09-19T23:30:34.929Z,2.50
2018-09-19T23:33:03.929Z,2.40
2018-09-19T23:35:32.911Z,2.20
2018-09-19T23:38:01.879Z,2.45
2018-09-19T23:40:30.803Z,2.12
2018-09-19T23:42:59.730Z,2.15
2018-09-19T23:45:28.643Z,1.92
2018-09-19T23:47:57.559Z,2.40
2018-09-19T23:50:26.471Z,2.08
2018-09-19T23:52:55.378Z,2.15
2018-09-19T23:55:24.271Z,1.87
2018-09-19T23:57:53.219Z,2.02
